Time;durP1;ratioP1;P1;durP2;ratioP2;P2;SDS_P1;SDS_P2;PMS_P1;PMS_P2;Temp;Humidity;BMP_temperature;BMP_pressure;BME280_temperature;BME280_humidity;BME280_pressure;Samples;Min_cycle;Max_cycle;Signal;HPM_P1;HPM_P2
2023/05/22 00:02:10;;;;;;;34.38;25.35;;;17.70;99.90;;;;;;4990093;28;20034;-87
2023/05/22 00:04:36;;;;;;;34.03;25.15;;;17.70;99.90;;;;;;4984870;28;20041;-87
2023/05/22 00:07:02;;;;;;;35.50;25.50;;;17.60;99.90;;;;;;4975973;28;20040;-87
2023/05/22 00:09:28;;;;;;;32.65;26.00;;;17.60;99.90;;;;;;5008399;28;20071;-87
2023/05/22 00:11:54;;;;;;;34.80;25.35;;;17.60;99.90;;;;;;4974934;28;20049;-89
2023/05/22 00:14:19;;;;;;;34.67;25.85;;;17.60;99.90;;;;;;4959568;28;20068;-89
2023/05/22 00:16:47;;;;;;;38.00;25.55;;;17.60;99.90;;;;;;4990595;28;20045;-90
2023/05/22 00:19:15;;;;;;;34.88;24.80;;;17.60;99.90;;;;;;5001080;28;21459;-89
2023/05/22 00:21:42;;;;;;;30.63;24.23;;;17.60;99.90;;;;;;5000111;28;20077;-90
2023/05/22 00:24:08;;;;;;;33.47;24.05;;;17.60;99.90;;;;;;4970257;28;20049;-89
2023/05/22 00:26:34;;;;;;;32.90;23.85;;;17.60;99.90;;;;;;4985897;28;20426;-88
2023/05/22 00:29:00;;;;;;;32.35;24.98;;;17.60;99.90;;;;;;4977629;28;20029;-89
2023/05/22 00:31:25;;;;;;;30.52;24.20;;;17.60;99.90;;;;;;4977590;28;20270;-89
2023/05/22 00:33:51;;;;;;;29.48;23.73;;;17.60;99.90;;;;;;5009625;28;20723;-89
2023/05/22 00:36:17;;;;;;;32.58;24.00;;;17.60;99.90;;;;;;4977761;28;20103;-89
2023/05/22 00:38:43;;;;;;;35.03;25.42;;;17.60;99.90;;;;;;4978726;28;20080;-89
2023/05/22 00:41:09;;;;;;;33.85;24.40;;;17.50;99.90;;;;;;4990997;28;20085;-89
2023/05/22 00:43:37;;;;;;;33.72;25.58;;;17.60;99.90;;;;;;4991620;28;20041;-90
2023/05/22 00:46:03;;;;;;;37.72;24.85;;;17.50;99.90;;;;;;4991081;28;20474;-91
2023/05/22 00:48:28;;;;;;;33.45;24.25;;;17.50;99.90;;;;;;5011535;28;20041;-91
2023/05/22 00:50:57;;;;;;;32.50;25.17;;;17.50;99.90;;;;;;5000725;28;20033;-90
2023/05/22 00:53:24;;;;;;;31.92;24.85;;;17.40;99.90;;;;;;5022545;28;20045;-91
2023/05/22 00:55:52;;;;;;;35.85;25.65;;;17.50;99.90;;;;;;5018893;28;20057;-90
2023/05/22 00:58:19;;;;;;;35.65;25.58;;;17.50;99.90;;;;;;5014437;28;20037;-90
2023/05/22 01:00:48;;;;;;;34.45;24.83;;;17.40;99.90;;;;;;5001163;28;20038;-89
2023/05/22 01:03:14;;;;;;;31.05;24.17;;;17.40;99.90;;;;;;5001394;28;20045;-92
2023/05/22 01:05:40;;;;;;;32.33;24.65;;;17.40;99.90;;;;;;4996650;28;20034;-88
2023/05/22 01:08:07;;;;;;;33.50;25.30;;;17.40;99.90;;;;;;5034865;28;20097;-87
2023/05/22 01:10:35;;;;;;;32.50;24.75;;;17.40;99.90;;;;;;5028863;28;20120;-87
2023/05/22 01:13:09;;;;;;;32.78;24.63;;;17.40;99.90;;;;;;5020909;28;20766;-87
2023/05/22 01:16:01;;;;;;;38.20;25.95;;;17.50;99.90;;;;;;5020417;28;20046;-88
2023/05/22 01:18:47;;;;;;;29.65;23.88;;;17.40;99.90;;;;;;5025937;28;20038;-88
2023/05/22 01:21:37;;;;;;;33.65;24.73;;;17.40;99.90;;;;;;4997580;28;20552;-88
2023/05/22 01:24:28;;;;;;;31.30;24.08;;;17.40;99.90;;;;;;4993850;28;20051;-87
2023/05/22 01:27:24;;;;;;;36.03;24.63;;;17.40;99.90;;;;;;5002195;28;20064;-88
2023/05/22 01:30:00;;;;;;;33.15;25.50;;;17.30;99.90;;;;;;4977657;28;20053;-88
2023/05/22 01:32:27;;;;;;;35.00;26.23;;;17.30;99.90;;;;;;5003150;28;20049;-88
2023/05/22 01:34:58;;;;;;;33.67;25.42;;;17.30;99.90;;;;;;4981917;28;20042;-88
2023/05/22 01:37:24;;;;;;;34.25;25.95;;;17.30;99.90;;;;;;4978489;28;20085;-88
2023/05/22 01:39:51;;;;;;;37.45;27.02;;;17.30;99.90;;;;;;4971071;28;20207;-88
2023/05/22 01:42:17;;;;;;;35.88;27.20;;;17.40;99.90;;;;;;4971383;28;20037;-89
2023/05/22 01:44:43;;;;;;;34.83;26.50;;;17.30;99.90;;;;;;4974193;28;20073;-88
2023/05/22 01:47:09;;;;;;;33.90;25.70;;;17.30;99.90;;;;;;4985712;28;20246;-88
2023/05/22 01:49:35;;;;;;;34.13;25.15;;;17.20;99.90;;;;;;5003935;28;20046;-88
2023/05/22 01:52:17;;;;;;;33.05;26.08;;;17.20;99.90;;;;;;4959863;28;20037;-89
2023/05/22 01:54:57;;;;;;;35.03;26.48;;;17.20;99.90;;;;;;4991950;28;20568;-89
2023/05/22 01:57:23;;;;;;;32.13;25.00;;;17.30;99.90;;;;;;4988803;28;20060;-89
2023/05/22 01:59:57;;;;;;;42.58;27.13;;;17.20;99.90;;;;;;4995888;28;20129;-89
2023/05/22 02:02:24;;;;;;;34.90;26.98;;;17.10;99.90;;;;;;5011680;28;20107;-89
2023/05/22 02:05:00;;;;;;;30.98;25.10;;;17.10;99.90;;;;;;4993266;28;20049;-89
2023/05/22 02:07:27;;;;;;;37.85;27.05;;;17.10;99.90;;;;;;4997106;28;20041;-88
2023/05/22 02:09:55;;;;;;;35.90;26.45;;;17.10;99.90;;;;;;4971440;28;20038;-89
2023/05/22 02:12:22;;;;;;;36.22;28.42;;;17.00;99.90;;;;;;4986508;28;20037;-89
2023/05/22 02:14:49;;;;;;;35.30;26.80;;;17.00;99.90;;;;;;4991295;28;20134;-90
2023/05/22 02:17:16;;;;;;;35.70;26.27;;;17.00;99.90;;;;;;5012587;28;20041;-88
2023/05/22 02:19:43;;;;;;;38.47;28.85;;;17.00;99.90;;;;;;4989612;28;20395;-89
2023/05/22 02:22:12;;;;;;;35.58;26.05;;;17.00;99.90;;;;;;5000370;28;20038;-88
2023/05/22 02:24:44;;;;;;;35.17;25.00;;;16.90;99.90;;;;;;4986589;28;20054;-89
2023/05/22 02:27:10;;;;;;;34.65;25.73;;;16.90;99.90;;;;;;4989672;28;20172;-88
2023/05/22 02:29:36;;;;;;;38.38;26.95;;;16.90;99.90;;;;;;4989493;28;20065;-88
2023/05/22 02:32:02;;;;;;;34.17;25.45;;;16.90;99.90;;;;;;5007587;28;20037;-89
2023/05/22 02:34:30;;;;;;;35.17;25.65;;;16.90;99.90;;;;;;4995594;28;20593;-88
2023/05/22 02:36:58;;;;;;;36.97;25.92;;;16.90;99.90;;;;;;5009152;28;20052;-89
2023/05/22 02:39:28;;;;;;;35.55;26.40;;;16.80;99.90;;;;;;4994171;28;20038;-89
2023/05/22 02:41:54;;;;;;;32.80;25.67;;;16.80;99.90;;;;;;4977973;28;20112;-89
2023/05/22 02:44:20;;;;;;;36.45;27.88;;;16.80;99.90;;;;;;5027226;28;20160;-89
2023/05/22 02:46:46;;;;;;;36.50;26.73;;;16.80;99.90;;;;;;4982474;28;20033;-89
2023/05/22 02:49:12;;;;;;;36.00;26.30;;;16.80;99.90;;;;;;4994287;28;20540;-89
2023/05/22 02:51:38;;;;;;;34.33;26.25;;;16.80;99.90;;;;;;5009084;28;20517;-89
2023/05/22 02:54:04;;;;;;;37.65;28.20;;;16.80;99.90;;;;;;4994365;28;20127;-88
2023/05/22 02:56:30;;;;;;;35.42;26.38;;;16.80;99.90;;;;;;5002925;28;20061;-88
2023/05/22 02:58:57;;;;;;;35.50;27.17;;;16.80;99.90;;;;;;4993535;28;20099;-88
2023/05/22 03:01:22;;;;;;;38.00;26.60;;;16.80;99.90;;;;;;4976514;28;20623;-88
2023/05/22 03:03:49;;;;;;;36.05;27.83;;;16.80;99.90;;;;;;4957982;28;20048;-88
2023/05/22 03:06:15;;;;;;;34.00;27.08;;;16.80;99.90;;;;;;4984077;28;20041;-87
2023/05/22 03:08:42;;;;;;;37.30;27.08;;;16.80;99.90;;;;;;4952336;28;20038;-87
2023/05/22 03:11:09;;;;;;;41.42;27.98;;;16.80;99.90;;;;;;4985233;28;20084;-88
2023/05/22 03:13:35;;;;;;;36.28;27.92;;;16.80;99.90;;;;;;5027807;28;20049;-88
2023/05/22 03:16:01;;;;;;;35.92;27.67;;;16.80;99.90;;;;;;5010281;28;20084;-88
2023/05/22 03:18:27;;;;;;;38.92;27.50;;;16.80;99.90;;;;;;5010647;28;20041;-88
2023/05/22 03:20:52;;;;;;;38.17;26.45;;;16.70;99.90;;;;;;4978023;28;20038;-88
2023/05/22 03:23:21;;;;;;;38.40;28.23;;;16.70;99.90;;;;;;4977386;28;20418;-88
2023/05/22 03:25:47;;;;;;;33.78;26.80;;;16.70;99.90;;;;;;4997873;28;20041;-88
2023/05/22 03:28:13;;;;;;;41.08;28.40;;;16.70;99.90;;;;;;4976880;28;20041;-87
2023/05/22 03:30:39;;;;;;;38.22;28.20;;;16.70;99.90;;;;;;5012276;28;20073;-88
2023/05/22 03:33:05;;;;;;;37.75;27.90;;;16.70;99.90;;;;;;4963268;28;20087;-88
2023/05/22 03:35:31;;;;;;;37.72;26.40;;;16.70;99.90;;;;;;4997572;28;20092;-88
2023/05/22 03:37:56;;;;;;;37.72;26.92;;;16.70;99.90;;;;;;5002969;28;20446;-89
2023/05/22 03:40:22;;;;;;;37.80;28.45;;;16.70;99.90;;;;;;5004612;28;20056;-88
2023/05/22 03:42:48;;;;;;;35.10;27.77;;;16.70;99.90;;;;;;5011773;28;20041;-88
2023/05/22 03:45:14;;;;;;;37.88;27.60;;;16.70;99.90;;;;;;5009041;28;20076;-88
2023/05/22 03:47:40;;;;;;;37.88;27.38;;;16.70;99.90;;;;;;4997655;28;20037;-87
2023/05/22 03:50:06;;;;;;;34.83;27.17;;;16.70;99.90;;;;;;5010573;28;20652;-87
2023/05/22 03:52:32;;;;;;;39.00;28.08;;;16.70;99.90;;;;;;4993699;28;20037;-87
2023/05/22 03:54:57;;;;;;;37.53;26.73;;;16.70;99.90;;;;;;4980781;28;20099;-88
2023/05/22 03:57:23;;;;;;;40.97;27.98;;;16.70;99.90;;;;;;4989927;28;20055;-86
2023/05/22 03:59:49;;;;;;;37.58;29.00;;;16.70;99.90;;;;;;5000304;28;20041;-87
2023/05/22 04:02:15;;;;;;;35.90;26.98;;;16.60;99.90;;;;;;5008945;28;20120;-87
2023/05/22 04:04:44;;;;;;;38.40;28.77;;;16.70;99.90;;;;;;4976970;28;20607;-87
2023/05/22 04:07:12;;;;;;;35.53;27.77;;;16.70;99.90;;;;;;5007427;28;20042;-88
2023/05/22 04:09:39;;;;;;;36.35;27.20;;;16.70;99.90;;;;;;5011451;28;20042;-87
2023/05/22 04:12:05;;;;;;;35.13;26.73;;;16.70;99.90;;;;;;4988653;28;20545;-87
2023/05/22 04:14:31;;;;;;;39.65;29.00;;;16.70;99.90;;;;;;4994454;28;20045;-87
2023/05/22 04:16:58;;;;;;;37.30;28.75;;;16.70;99.90;;;;;;5024328;28;20124;-88
2023/05/22 04:19:26;;;;;;;37.38;28.65;;;16.70;99.90;;;;;;4999633;28;20029;-88
2023/05/22 04:21:53;;;;;;;38.47;28.50;;;16.70;99.90;;;;;;4999562;28;20049;-87
2023/05/22 04:24:21;;;;;;;35.20;28.20;;;16.60;99.90;;;;;;4981459;28;20037;-87
2023/05/22 04:26:48;;;;;;;37.17;27.55;;;16.60;99.90;;;;;;4999639;28;20159;-88
2023/05/22 04:29:15;;;;;;;36.35;26.60;;;16.60;99.90;;;;;;4971637;28;20042;-87
2023/05/22 04:31:41;;;;;;;37.28;28.85;;;16.60;99.90;;;;;;5016649;28;20116;-87
2023/05/22 04:34:13;;;;;;;36.85;27.67;;;16.60;99.90;;;;;;4991184;28;20076;-87
2023/05/22 04:36:38;;;;;;;38.20;28.15;;;16.70;99.90;;;;;;5009767;28;20049;-87
2023/05/22 04:39:04;;;;;;;35.33;28.40;;;16.60;99.90;;;;;;4975113;28;20055;-87
2023/05/22 04:41:31;;;;;;;35.22;28.75;;;16.60;99.90;;;;;;4985944;28;20048;-87
2023/05/22 04:43:57;;;;;;;36.53;28.13;;;16.60;99.90;;;;;;4992607;28;20042;-87
2023/05/22 04:46:23;;;;;;;38.65;28.65;;;16.70;99.90;;;;;;5010064;28;20043;-88
2023/05/22 04:48:49;;;;;;;32.63;27.25;;;16.70;99.90;;;;;;4972783;28;20120;-88
2023/05/22 04:51:15;;;;;;;35.60;27.48;;;16.70;99.90;;;;;;4990043;28;20044;-88
2023/05/22 04:53:41;;;;;;;34.58;26.73;;;16.70;99.90;;;;;;4971222;28;20053;-88
2023/05/22 04:56:06;;;;;;;36.10;26.98;;;16.70;99.90;;;;;;5015428;28;20053;-88
2023/05/22 04:58:32;;;;;;;36.17;27.25;;;16.70;99.90;;;;;;4984506;28;20042;-89
2023/05/22 05:00:58;;;;;;;32.78;25.63;;;16.80;99.90;;;;;;4994285;28;20042;-88
2023/05/22 05:03:27;;;;;;;36.78;26.42;;;16.70;99.90;;;;;;5011358;28;20060;-89
2023/05/22 05:05:53;;;;;;;34.00;26.02;;;16.80;99.90;;;;;;4968236;28;20041;-89
2023/05/22 05:08:19;;;;;;;32.17;25.45;;;16.80;99.90;;;;;;5020604;28;20114;-88
2023/05/22 05:10:45;;;;;;;32.00;25.60;;;16.80;99.90;;;;;;4975924;28;20087;-87
2023/05/22 05:13:10;;;;;;;32.55;25.50;;;16.80;99.90;;;;;;4976593;28;20033;-88
2023/05/22 05:15:36;;;;;;;29.50;24.83;;;16.80;99.90;;;;;;4987019;28;20037;-88
2023/05/22 05:18:02;;;;;;;33.70;25.17;;;16.80;99.90;;;;;;4975926;28;20041;-87
2023/05/22 05:20:29;;;;;;;38.17;26.15;;;16.80;99.90;;;;;;4997999;28;20045;-88
2023/05/22 05:22:55;;;;;;;29.58;25.45;;;16.70;99.90;;;;;;4974232;28;20042;-89
2023/05/22 05:25:21;;;;;;;31.70;25.23;;;16.70;99.90;;;;;;4991165;28;20033;-88
2023/05/22 05:27:47;;;;;;;33.70;26.65;;;16.70;99.90;;;;;;4960788;28;20040;-87
2023/05/22 05:30:12;;;;;;;32.38;25.35;;;16.70;99.90;;;;;;4972417;28;20091;-87
2023/05/22 05:32:38;;;;;;;32.47;26.48;;;16.70;99.90;;;;;;4986871;28;20052;-88
2023/05/22 05:35:04;;;;;;;30.58;25.25;;;16.70;99.90;;;;;;4979476;28;20037;-86
2023/05/22 05:37:30;;;;;;;34.33;24.73;;;16.70;99.90;;;;;;4977441;28;20044;-86
2023/05/22 05:39:56;;;;;;;34.38;25.38;;;16.70;99.90;;;;;;4973121;28;20099;-87
2023/05/22 05:42:21;;;;;;;29.15;25.92;;;16.70;99.90;;;;;;4978361;28;20051;-86
2023/05/22 05:44:47;;;;;;;31.65;26.00;;;16.70;99.90;;;;;;4972181;28;20042;-85
2023/05/22 05:47:13;;;;;;;29.92;25.08;;;16.70;99.90;;;;;;5000335;28;20487;-86
2023/05/22 05:49:38;;;;;;;35.78;26.05;;;16.70;99.90;;;;;;4972116;28;20138;-88
2023/05/22 05:52:04;;;;;;;35.92;26.05;;;16.70;99.90;;;;;;4993432;28;20718;-87
2023/05/22 05:54:30;;;;;;;37.08;26.30;;;16.80;99.90;;;;;;4971685;28;20038;-87
2023/05/22 05:56:56;;;;;;;31.30;24.33;;;16.70;99.90;;;;;;4970948;28;20058;-88
2023/05/22 05:59:22;;;;;;;32.28;24.75;;;16.70;99.90;;;;;;4993822;28;20049;-88
2023/05/22 06:01:47;;;;;;;33.38;25.23;;;16.80;99.90;;;;;;4981841;28;20525;-88
2023/05/22 06:04:13;;;;;;;30.20;24.95;;;16.70;99.90;;;;;;4997833;28;20049;-88
2023/05/22 06:06:39;;;;;;;29.15;24.13;;;16.80;99.90;;;;;;4972204;28;20545;-87
2023/05/22 06:09:05;;;;;;;28.38;22.83;;;16.80;99.90;;;;;;4962558;28;20072;-88
2023/05/22 06:11:31;;;;;;;31.48;23.88;;;16.90;99.90;;;;;;4976473;28;20042;-88
2023/05/22 06:14:01;;;;;;;29.88;22.88;;;16.90;99.90;;;;;;4976308;28;20042;-88
2023/05/22 06:16:27;;;;;;;30.35;22.70;;;17.00;99.90;;;;;;4990033;28;20037;-89
2023/05/22 06:18:55;;;;;;;27.45;22.85;;;17.00;99.90;;;;;;4991993;28;20048;-87
2023/05/22 06:21:21;;;;;;;30.92;22.65;;;17.00;99.90;;;;;;4977449;28;20510;-87
2023/05/22 06:23:48;;;;;;;26.35;22.95;;;17.10;99.90;;;;;;4974471;28;20664;-87
2023/05/22 06:26:15;;;;;;;28.83;22.55;;;17.20;99.90;;;;;;4995815;28;20383;-90
2023/05/22 06:28:41;;;;;;;23.30;20.27;;;17.20;99.90;;;;;;5022843;28;20030;-91
2023/05/22 06:31:08;;;;;;;27.48;22.80;;;17.20;99.90;;;;;;4992208;28;20044;-90
2023/05/22 06:33:35;;;;;;;23.42;20.48;;;17.30;99.90;;;;;;4965262;28;20128;-88
2023/05/22 06:36:05;;;;;;;26.85;20.38;;;17.30;99.90;;;;;;4988918;28;20045;-86
2023/05/22 06:38:31;;;;;;;25.10;20.95;;;17.40;99.90;;;;;;4995649;28;20046;-86
2023/05/22 06:40:57;;;;;;;24.52;21.08;;;17.50;99.90;;;;;;4987159;28;20052;-87
2023/05/22 06:43:23;;;;;;;29.08;21.45;;;17.50;99.90;;;;;;4999667;28;20033;-86
2023/05/22 06:45:49;;;;;;;28.60;20.88;;;17.50;99.90;;;;;;4993047;28;20029;-88
2023/05/22 06:48:14;;;;;;;26.35;21.17;;;17.60;99.90;;;;;;5019177;28;20041;-87
2023/05/22 06:50:40;;;;;;;26.90;21.83;;;17.70;99.90;;;;;;4990296;28;20069;-90
2023/05/22 06:53:06;;;;;;;29.38;21.00;;;17.70;99.90;;;;;;5022682;28;20049;-89
2023/05/22 06:55:32;;;;;;;26.27;21.77;;;17.70;99.90;;;;;;5001750;28;20042;-89
2023/05/22 06:57:57;;;;;;;26.02;21.63;;;17.80;99.90;;;;;;5027976;28;20068;-90
2023/05/22 07:00:24;;;;;;;28.40;22.40;;;17.90;99.90;;;;;;5010310;28;20112;-91
2023/05/22 07:02:50;;;;;;;24.50;21.45;;;17.90;99.90;;;;;;5020845;28;20058;-92
2023/05/22 07:05:15;;;;;;;28.15;22.27;;;18.00;99.90;;;;;;4998106;28;20026;-89
2023/05/22 07:07:42;;;;;;;25.30;21.13;;;18.00;99.90;;;;;;5040643;28;20026;-90
2023/05/22 07:10:09;;;;;;;27.15;21.25;;;18.10;99.90;;;;;;5012614;28;20031;-92
2023/05/22 07:12:35;;;;;;;28.50;22.73;;;18.10;99.90;;;;;;4981690;28;20041;-91
2023/05/22 07:15:01;;;;;;;28.38;20.70;;;18.30;99.90;;;;;;5006002;28;20026;-90
2023/05/22 07:17:26;;;;;;;28.50;21.67;;;18.40;99.90;;;;;;5011429;28;20041;-90
2023/05/22 07:19:52;;;;;;;26.83;21.67;;;18.50;99.90;;;;;;4995491;28;20038;-90
2023/05/22 07:22:18;;;;;;;30.50;22.50;;;18.60;99.90;;;;;;5018088;28;20044;-90
2023/05/22 07:24:46;;;;;;;27.67;21.85;;;18.60;99.90;;;;;;4979103;28;20503;-87
2023/05/22 07:27:11;;;;;;;27.35;21.50;;;18.50;99.90;;;;;;4994984;28;20026;-86
2023/05/22 07:29:38;;;;;;;26.20;21.20;;;18.50;99.90;;;;;;4978105;28;20050;-86
2023/05/22 07:32:03;;;;;;;25.05;21.25;;;18.50;99.90;;;;;;5010934;28;20042;-86
2023/05/22 07:34:33;;;;;;;31.27;21.85;;;18.50;99.90;;;;;;4976132;28;20447;-87
2023/05/22 07:37:07;;;;;;;28.02;19.65;;;18.50;99.90;;;;;;5013389;28;20176;-86
2023/05/22 07:39:33;;;;;;;26.00;20.48;;;18.50;99.90;;;;;;4978839;28;20033;-86
2023/05/22 07:41:59;;;;;;;24.52;20.45;;;18.60;99.90;;;;;;4994383;28;20091;-87
2023/05/22 07:44:24;;;;;;;24.20;19.45;;;18.70;99.90;;;;;;5011313;28;20698;-87
2023/05/22 07:46:50;;;;;;;24.67;20.05;;;18.70;99.90;;;;;;4997208;28;20044;-86
2023/05/22 07:49:19;;;;;;;23.95;19.67;;;18.80;99.90;;;;;;4977423;28;20077;-87
2023/05/22 07:51:45;;;;;;;24.52;19.38;;;18.90;99.90;;;;;;5010833;28;20519;-85
2023/05/22 07:54:12;;;;;;;24.83;19.60;;;19.00;99.90;;;;;;5025864;28;20124;-87
2023/05/22 07:56:42;;;;;;;28.08;19.50;;;19.10;99.90;;;;;;4977480;28;20057;-87
2023/05/22 07:59:10;;;;;;;20.92;17.98;;;19.40;99.90;;;;;;5010928;28;20060;-88
2023/05/22 08:01:37;;;;;;;22.48;18.13;;;19.40;99.90;;;;;;4978245;28;20069;-84
2023/05/22 08:04:03;;;;;;;23.75;18.00;;;19.70;99.90;;;;;;5011617;28;20034;-87
2023/05/22 08:06:29;;;;;;;25.00;17.60;;;19.80;99.90;;;;;;4992355;28;20041;-87
2023/05/22 08:08:55;;;;;;;21.35;17.90;;;20.10;99.90;;;;;;4974566;28;20035;-87
2023/05/22 08:11:21;;;;;;;20.13;16.60;;;20.30;99.90;;;;;;4987897;28;20042;-88
2023/05/22 08:13:47;;;;;;;21.90;18.45;;;20.50;99.90;;;;;;4994415;28;20049;-87
2023/05/22 08:16:13;;;;;;;21.98;17.15;;;20.70;99.90;;;;;;4965934;28;20045;-87
2023/05/22 08:18:39;;;;;;;19.50;16.50;;;20.90;99.90;;;;;;4974878;28;20034;-88
2023/05/22 08:21:05;;;;;;;26.38;16.52;;;21.00;99.90;;;;;;4985599;28;20042;-86
2023/05/22 08:23:31;;;;;;;21.42;16.88;;;21.20;99.90;;;;;;5008773;28;20038;-83
2023/05/22 08:25:57;;;;;;;23.98;17.02;;;21.00;99.90;;;;;;4993445;28;20446;-83
2023/05/22 08:28:23;;;;;;;18.65;16.65;;;20.80;99.90;;;;;;4992722;28;20037;-84
2023/05/22 08:30:49;;;;;;;18.65;16.52;;;20.70;99.90;;;;;;5004676;28;20046;-83
2023/05/22 08:33:18;;;;;;;18.52;16.33;;;20.60;99.90;;;;;;5010531;28;20049;-85
2023/05/22 08:35:44;;;;;;;21.20;15.35;;;20.50;99.90;;;;;;5025487;28;20042;-88
2023/05/22 08:38:10;;;;;;;17.55;14.43;;;20.60;99.90;;;;;;4993381;28;20074;-85
2023/05/22 08:40:37;;;;;;;17.17;14.57;;;20.60;99.90;;;;;;4992798;28;20077;-74
2023/05/22 08:43:06;;;;;;;17.80;15.27;;;20.70;99.90;;;;;;5009713;28;20038;-82
2023/05/22 08:45:33;;;;;;;19.50;15.82;;;20.90;99.90;;;;;;4992266;28;20046;-82
2023/05/22 08:48:03;;;;;;;18.00;15.55;;;21.00;99.90;;;;;;4993613;28;20034;-81
2023/05/22 08:50:29;;;;;;;19.95;15.48;;;20.90;99.90;;;;;;4993227;28;20117;-82
2023/05/22 08:52:58;;;;;;;17.48;14.45;;;20.90;99.90;;;;;;4977144;28;20124;-82
2023/05/22 08:55:25;;;;;;;20.70;15.00;;;21.00;99.90;;;;;;4993003;28;20050;-81
2023/05/22 08:57:51;;;;;;;15.52;13.68;;;21.30;99.90;;;;;;4992913;28;20454;-81
2023/05/22 09:00:18;;;;;;;21.05;14.88;;;21.40;99.90;;;;;;4977329;28;20045;-81
2023/05/22 09:02:45;;;;;;;18.65;14.55;;;21.50;99.90;;;;;;4992982;28;20060;-81
2023/05/22 09:05:11;;;;;;;15.93;14.23;;;21.70;99.90;;;;;;4993068;28;20042;-82
2023/05/22 09:07:39;;;;;;;21.10;15.35;;;21.80;99.90;;;;;;5008507;28;20033;-81
2023/05/22 09:10:06;;;;;;;18.23;13.82;;;21.80;99.90;;;;;;4977011;28;20411;-81
2023/05/22 09:12:32;;;;;;;17.85;13.85;;;21.70;99.90;;;;;;4984917;28;20571;-81
2023/05/22 09:15:09;;;;;;;15.98;12.90;;;21.80;99.90;;;;;;4993831;28;20050;-82
2023/05/22 09:17:39;;;;;;;20.52;14.38;;;21.70;99.90;;;;;;4960074;28;20050;-82
2023/05/22 09:20:05;;;;;;;17.77;13.25;;;21.70;99.90;;;;;;4973451;28;20101;-82
2023/05/22 09:22:36;;;;;;;21.63;14.18;;;21.70;99.90;;;;;;4975146;28;20073;-81
2023/05/22 09:25:03;;;;;;;16.52;14.48;;;21.60;99.90;;;;;;4976511;28;20346;-81
2023/05/22 09:27:29;;;;;;;15.52;13.60;;;21.60;99.90;;;;;;4976640;28;20064;-81
2023/05/22 09:29:56;;;;;;;18.05;13.50;;;21.70;99.90;;;;;;4976752;28;20034;-81
2023/05/22 09:32:22;;;;;;;17.40;13.77;;;21.70;99.90;;;;;;4976431;28;20125;-81
2023/05/22 09:34:49;;;;;;;18.55;13.75;;;21.70;99.90;;;;;;4974727;28;20045;-82
2023/05/22 09:37:16;;;;;;;18.05;14.13;;;21.60;99.90;;;;;;4990375;28;20127;-71
2023/05/22 09:39:46;;;;;;;14.77;13.27;;;21.70;99.90;;;;;;4987969;28;20049;-71
2023/05/22 09:42:15;;;;;;;18.55;13.48;;;21.70;99.90;;;;;;5008964;28;20038;-72
2023/05/22 09:44:43;;;;;;;19.83;14.15;;;21.60;99.90;;;;;;4992607;28;20527;-71
2023/05/22 09:47:09;;;;;;;19.38;14.13;;;21.60;99.90;;;;;;4973430;28;20073;-71
2023/05/22 09:49:42;;;;;;;17.13;13.02;;;21.70;99.90;;;;;;5012430;28;20045;-71
2023/05/22 09:52:11;;;;;;;17.63;12.95;;;21.70;99.90;;;;;;5008730;28;20470;-71
2023/05/22 09:54:44;;;;;;;17.30;14.35;;;21.60;99.90;;;;;;4993070;28;20066;-71
2023/05/22 09:57:14;;;;;;;18.50;13.70;;;21.70;99.90;;;;;;4998544;28;20085;-71
2023/05/22 09:59:42;;;;;;;21.63;14.52;;;21.40;99.90;;;;;;4992088;28;20050;-72
2023/05/22 10:02:09;;;;;;;17.20;13.82;;;21.30;99.90;;;;;;4995942;28;20471;-72
2023/05/22 10:04:36;;;;;;;15.38;13.48;;;21.30;99.90;;;;;;4991968;28;20052;-72
2023/05/22 10:07:02;;;;;;;18.20;14.45;;;21.20;99.90;;;;;;4980814;28;20099;-72
2023/05/22 10:09:33;;;;;;;21.27;14.90;;;21.10;99.90;;;;;;4980995;28;20060;-72
2023/05/22 10:12:04;;;;;;;19.45;13.50;;;21.00;99.90;;;;;;4976186;28;20770;-74
2023/05/22 10:14:31;;;;;;;17.63;13.77;;;20.90;99.90;;;;;;5006940;28;20060;-74
2023/05/22 10:17:00;;;;;;;22.55;14.45;;;20.90;99.90;;;;;;4981805;28;20456;-74
2023/05/22 10:19:29;;;;;;;17.67;13.45;;;21.00;99.90;;;;;;4938097;28;20192;-75
2023/05/22 10:21:56;;;;;;;17.50;13.68;;;21.00;99.90;;;;;;4968073;28;20565;-75
2023/05/22 10:24:23;;;;;;;19.23;13.95;;;21.00;99.90;;;;;;4993283;28;20419;-75
2023/05/22 10:26:50;;;;;;;19.48;13.98;;;21.00;99.90;;;;;;4955277;28;20727;-75
2023/05/22 10:29:42;;;;;;;21.13;14.00;;;21.00;99.90;;;;;;4951537;28;20073;-72
2023/05/22 10:32:46;;;;;;;21.02;14.93;;;21.00;99.90;;;;;;4984252;28;20041;-72
2023/05/22 10:35:45;;;;;;;19.65;14.77;;;21.10;99.90;;;;;;4962993;28;20069;-72
2023/05/22 10:38:26;;;;;;;20.48;13.52;;;21.30;99.90;;;;;;4984391;28;20538;-72
2023/05/22 10:40:53;;;;;;;16.95;13.88;;;21.50;99.90;;;;;;4969616;28;20132;-72
2023/05/22 10:43:21;;;;;;;19.92;14.48;;;21.70;99.90;;;;;;4968411;28;20046;-76
2023/05/22 10:45:47;;;;;;;16.88;13.00;;;22.00;99.90;;;;;;4996370;28;20049;-71
2023/05/22 10:48:13;;;;;;;16.25;14.32;;;22.30;99.90;;;;;;4967332;28;20041;-71
2023/05/22 10:50:39;;;;;;;17.48;13.98;;;22.60;99.90;;;;;;4957424;28;20042;-71
2023/05/22 10:53:24;;;;;;;19.23;13.40;;;23.00;99.90;;;;;;4984828;28;20406;-70
2023/05/22 10:56:07;;;;;;;21.15;13.43;;;23.30;99.90;;;;;;4993641;28;20159;-72
2023/05/22 10:58:36;;;;;;;15.60;13.40;;;23.60;99.90;;;;;;4992819;28;20393;-73
2023/05/22 11:01:09;;;;;;;23.10;14.02;;;23.90;99.90;;;;;;4980944;28;20048;-71
2023/05/22 11:03:55;;;;;;;20.70;14.07;;;24.00;99.90;;;;;;4994530;28;20604;-69
2023/05/22 11:06:33;;;;;;;21.10;14.88;;;23.90;99.90;;;;;;4995066;28;20570;-69
2023/05/22 11:08:58;;;;;;;16.38;14.30;;;23.80;99.90;;;;;;4996008;28;20056;-69
2023/05/22 11:11:27;;;;;;;19.83;14.30;;;23.70;99.90;;;;;;4964363;28;20398;-68
2023/05/22 11:14:02;;;;;;;23.50;15.13;;;23.60;99.90;;;;;;4979928;28;20044;-69
2023/05/22 11:16:32;;;;;;;19.88;14.30;;;23.30;99.90;;;;;;4996449;28;20041;-68
2023/05/22 11:19:08;;;;;;;16.70;14.82;;;23.30;99.90;;;;;;4978392;28;20045;-68
2023/05/22 11:21:41;;;;;;;16.45;14.13;;;23.30;99.90;;;;;;4980909;28;20441;-68
2023/05/22 11:24:07;;;;;;;18.20;15.10;;;23.30;99.90;;;;;;4996854;28;20222;-68
2023/05/22 11:26:33;;;;;;;21.83;14.93;;;23.40;99.90;;;;;;4978795;28;20030;-68
2023/05/22 11:28:59;;;;;;;19.00;13.88;;;23.70;99.90;;;;;;4995012;28;20526;-68
2023/05/22 11:31:25;;;;;;;18.80;15.10;;;24.10;99.90;;;;;;4993563;28;20053;-68
2023/05/22 11:33:52;;;;;;;21.90;13.73;;;24.40;99.90;;;;;;4997608;28;20513;-68
2023/05/22 11:36:18;;;;;;;28.63;14.93;;;24.80;99.90;;;;;;4995866;28;20052;-68
2023/05/22 11:38:44;;;;;;;17.95;15.30;;;25.00;99.90;;;;;;4995998;28;20410;-70
2023/05/22 11:41:10;;;;;;;26.38;16.58;;;25.20;99.90;;;;;;4992462;28;20045;-67
2023/05/22 11:43:36;;;;;;;19.35;15.20;;;25.40;99.90;;;;;;4996316;28;20129;-68
2023/05/22 11:46:10;;;;;;;18.20;15.15;;;25.50;99.90;;;;;;4980489;28;20037;-68
2023/05/22 11:48:39;;;;;;;19.70;15.02;;;25.70;99.90;;;;;;4979859;28;20236;-68
2023/05/22 11:51:05;;;;;;;22.27;15.70;;;25.70;99.90;;;;;;4997404;28;20138;-68
2023/05/22 11:53:31;;;;;;;19.02;15.05;;;25.70;99.90;;;;;;4963988;28;20049;-68
2023/05/22 11:56:05;;;;;;;19.45;15.82;;;25.80;99.90;;;;;;4991853;28;20120;-68
2023/05/22 11:58:32;;;;;;;18.55;14.77;;;26.00;99.90;;;;;;5004332;28;20045;-68
2023/05/22 12:01:02;;;;;;;19.08;14.95;;;26.10;99.90;;;;;;4975968;28;20034;-68
2023/05/22 12:03:29;;;;;;;19.25;15.15;;;26.20;99.90;;;;;;4989642;28;20700;-68
2023/05/22 12:05:56;;;;;;;19.45;17.05;;;26.50;99.90;;;;;;4990263;28;20045;-69
2023/05/22 12:08:23;;;;;;;17.90;15.18;;;26.40;99.90;;;;;;4995256;28;20029;-68
2023/05/22 12:10:50;;;;;;;19.60;15.75;;;26.60;99.90;;;;;;5009662;28;20049;-68
2023/05/22 12:13:23;;;;;;;18.67;15.73;;;26.70;99.90;;;;;;4991357;28;20041;-68
2023/05/22 12:15:51;;;;;;;18.38;15.45;;;26.70;99.40;;;;;;4991981;28;20061;-68
2023/05/22 12:18:18;;;;;;;21.40;15.48;;;26.70;99.80;;;;;;4993359;28;20041;-68
2023/05/22 12:20:44;;;;;;;20.30;16.20;;;26.60;99.90;;;;;;4988772;28;20807;-68
2023/05/22 12:23:30;;;;;;;19.70;15.40;;;26.70;99.90;;;;;;4975017;28;20041;-68
2023/05/22 12:26:07;;;;;;;19.52;14.85;;;26.50;99.90;;;;;;5010145;28;20038;-68
2023/05/22 12:28:33;;;;;;;16.52;14.68;;;26.60;99.70;;;;;;4972108;28;20041;-68
2023/05/22 12:30:59;;;;;;;17.52;15.65;;;26.70;99.90;;;;;;4971506;28;20033;-68
2023/05/22 12:33:27;;;;;;;18.70;15.43;;;26.70;99.70;;;;;;4988133;28;20426;-68